createdAt,value
2018-01-31T01:52:28.645Z,97100.48
2018-01-31T01:54:57.973Z,97081.11
2018-01-31T01:57:23.887Z,97078.26
2018-01-31T01:59:53.644Z,97077.53
2018-01-31T02:02:19.559Z,97070.55
2018-01-31T02:04:46.721Z,97064.27
2018-01-31T02:07:12.677Z,97060.87
2018-01-31T02:09:41.823Z,97050.36
2018-01-31T02:12:07.782Z,97050.49
2018-01-31T02:14:37.166Z,97056.14
2018-01-31T02:17:03.070Z,97051.83
2018-01-31T02:19:29.198Z,97041.45
2018-01-31T02:21:55.242Z,97048.69
2018-01-31T02:24:21.181Z,97047.08
2018-01-31T02:26:47.553Z,97031.92
2018-01-31T02:29:13.477Z,97030.53
2018-01-31T02:31:42.345Z,97030.66
2018-01-31T02:34:08.264Z,97024.57
2018-01-31T02:36:37.740Z,97022.95
2018-01-31T02:39:16.137Z,97021.35
2018-01-31T02:41:42.048Z,97011.79
2018-01-31T02:44:08.000Z,97010.59
2018-01-31T02:46:33.927Z,97008.48
2018-01-31T02:48:59.845Z,97004.22
2018-01-31T02:51:25.750Z,97001.98
2018-01-31T02:53:51.684Z,96992.59
2018-01-31T02:56:17.604Z,96990.25
2018-01-31T02:58:43.511Z,96985.95
2018-01-31T03:01:09.465Z,96982.41
2018-01-31T03:03:35.438Z,96981.73
2018-01-31T03:06:01.417Z,96968.72
2018-01-31T03:08:27.675Z,96967.61
2018-01-31T03:10:53.600Z,96958.53
2018-01-31T03:13:22.382Z,96960.77
2018-01-31T03:15:48.312Z,96949.91
2018-01-31T03:18:17.897Z,96949.91
2018-01-31T03:20:43.868Z,96952.44
2018-01-31T03:23:13.240Z,96951.92
2018-01-31T03:25:39.211Z,96946.61
2018-01-31T03:28:06.498Z,96946.22
2018-01-31T03:30:32.419Z,96942.63
2018-01-31T03:32:58.381Z,96939.00
2018-01-31T03:35:24.315Z,96935.03
2018-01-31T03:37:50.203Z,96942.39
2018-01-31T03:40:19.640Z,96940.19
2018-01-31T03:42:45.547Z,96936.33
2018-01-31T03:45:14.603Z,96941.00
2018-01-31T03:47:41.170Z,96943.34
2018-01-31T03:50:07.609Z,96930.09
2018-01-31T03:52:33.524Z,96931.01
2018-01-31T03:55:02.490Z,96923.09
2018-01-31T03:57:28.412Z,96919.56
2018-01-31T03:59:57.945Z,96922.80
2018-01-31T04:02:23.886Z,96924.63
2018-01-31T04:04:53.430Z,96931.91
2018-01-31T04:07:19.330Z,96919.21
2018-01-31T04:09:45.277Z,96918.22
2018-01-31T04:12:11.553Z,96913.52
2018-01-31T04:14:37.486Z,96917.36
2018-01-31T04:17:03.419Z,96909.13
2018-01-31T04:19:29.329Z,96905.20
2018-01-31T04:21:58.334Z,96904.72
2018-01-31T04:24:24.254Z,96897.69
2018-01-31T04:26:52.975Z,96891.22
2018-01-31T04:29:18.909Z,96900.08
2018-01-31T04:31:47.597Z,96890.41
2018-01-31T04:34:13.534Z,96878.82
2018-01-31T04:36:43.136Z,96882.42
2018-01-31T04:39:09.061Z,96879.12
2018-01-31T04:41:38.247Z,96877.72
2018-01-31T04:44:04.215Z,96867.78
2018-01-31T04:46:30.137Z,96865.15
2018-01-31T04:48:56.094Z,96860.31
2018-01-31T04:51:22.043Z,96859.35
2018-01-31T04:53:49.269Z,96860.26
2018-01-31T04:56:15.201Z,96859.01
2018-01-31T04:58:44.775Z,96858.45
2018-01-31T05:01:10.743Z,96853.65
2018-01-31T05:03:39.685Z,96854.61
2018-01-31T05:06:05.629Z,96854.28
2018-01-31T05:08:33.458Z,96847.67
2018-01-31T05:10:59.442Z,96837.86
2018-01-31T05:13:29.210Z,96841.74
2018-01-31T05:15:55.148Z,96837.95
2018-01-31T05:18:22.714Z,96833.80
2018-01-31T05:20:48.639Z,96838.73
2018-01-31T05:23:14.580Z,96834.56
2018-01-31T05:25:40.487Z,96826.47
2018-01-31T05:28:06.427Z,96823.03
2018-01-31T05:30:35.889Z,96820.69
2018-01-31T05:33:01.792Z,96814.09
2018-01-31T05:35:29.589Z,96810.17
2018-01-31T05:37:55.550Z,96806.25
2018-01-31T05:40:25.166Z,96806.20
2018-01-31T05:42:51.096Z,96795.48
2018-01-31T05:45:20.158Z,96794.38
2018-01-31T05:47:47.125Z,96799.78
2018-01-31T05:50:13.195Z,96788.00
2018-01-31T05:52:39.183Z,96788.25
2018-01-31T05:55:08.068Z,96780.77
2018-01-31T05:57:33.985Z,96779.63
2018-01-31T05:59:59.910Z,96773.83
2018-01-31T06:02:25.823Z,96762.45
2018-01-31T06:04:51.756Z,96750.53
2018-01-31T06:07:21.144Z,96753.59
2018-01-31T06:09:47.116Z,96758.23
2018-01-31T06:12:15.111Z,96746.30
2018-01-31T06:14:41.033Z,96754.58
2018-01-31T06:17:10.318Z,96746.63
2018-01-31T06:19:36.263Z,96745.54
2018-01-31T06:22:04.604Z,96754.64
2018-01-31T06:24:30.526Z,96748.45
2018-01-31T06:26:59.682Z,96745.16
2018-01-31T06:29:25.609Z,96743.44
2018-01-31T06:31:54.677Z,96733.09
2018-01-31T06:34:20.613Z,96744.53
2018-01-31T06:36:46.557Z,96746.81
2018-01-31T06:39:12.489Z,96744.13
2018-01-31T06:41:38.415Z,96744.95
2018-01-31T06:44:04.844Z,96734.66
2018-01-31T06:46:30.758Z,96730.25
2018-01-31T06:48:59.544Z,96722.41
2018-01-31T06:51:25.657Z,96705.77
2018-01-31T06:53:55.113Z,96696.49
2018-01-31T06:56:21.109Z,96696.19
2018-01-31T06:58:50.806Z,96690.80
2018-01-31T07:01:16.749Z,96687.20
2018-01-31T07:03:43.756Z,96686.66
2018-01-31T07:06:09.705Z,96690.92
2018-01-31T07:08:38.577Z,96693.78
2018-01-31T07:11:04.539Z,96694.15
2018-01-31T07:13:30.468Z,96697.88
2018-01-31T07:15:56.425Z,96681.92
2018-01-31T07:18:22.381Z,96689.68
2018-01-31T07:20:50.199Z,96686.41
2018-01-31T07:23:16.169Z,96679.13
2018-01-31T07:25:44.895Z,96673.41
2018-01-31T07:28:10.810Z,96668.63
2018-01-31T07:30:40.742Z,96661.40
2018-01-31T07:33:06.655Z,96655.59
2018-01-31T07:35:35.957Z,96658.48
2018-01-31T07:38:01.881Z,96643.61
2018-01-31T07:40:28.910Z,96659.89
2018-01-31T07:42:54.841Z,96658.58
2018-01-31T07:45:24.350Z,96652.00
2018-01-31T07:47:53.832Z,96646.36
2018-01-31T07:50:19.775Z,96654.50
2018-01-31T07:52:45.720Z,96644.20
2018-01-31T07:55:11.623Z,96638.59
2018-01-31T07:57:37.564Z,96643.31
2018-01-31T08:00:03.502Z,96630.87
2018-01-31T08:02:30.387Z,96634.05
2018-01-31T08:04:56.315Z,96636.86
2018-01-31T08:07:25.354Z,96626.45
2018-01-31T08:09:51.259Z,96622.39
2018-01-31T08:12:20.317Z,96622.70
2018-01-31T08:14:46.251Z,96617.70
2018-01-31T08:17:15.547Z,96609.52
2018-01-31T08:19:41.474Z,96609.58
2018-01-31T08:22:10.811Z,96596.66
2018-01-31T08:24:36.741Z,96588.88
2018-01-31T08:27:02.740Z,96581.00
2018-01-31T08:29:28.667Z,96584.81
2018-01-31T08:31:54.635Z,96582.22
2018-01-31T08:34:20.553Z,96577.75
2018-01-31T08:36:46.469Z,96584.27
2018-01-31T08:39:15.493Z,96577.22
2018-01-31T08:41:41.418Z,96573.40
2018-01-31T08:44:10.232Z,96569.53
2018-01-31T08:46:36.157Z,96565.72
2018-01-31T08:49:04.946Z,96553.09
2018-01-31T08:51:30.864Z,96547.48
2018-01-31T08:54:01.359Z,96542.02
2018-01-31T08:56:27.286Z,96541.28
2018-01-31T08:58:54.947Z,96543.63
2018-01-31T09:01:20.854Z,96539.75
2018-01-31T09:03:46.767Z,96527.57
2018-01-31T09:06:12.708Z,96526.16
2018-01-31T09:08:38.625Z,96524.73
2018-01-31T09:11:07.608Z,96521.41
2018-01-31T09:13:33.524Z,96523.02
2018-01-31T09:16:01.463Z,96522.72
2018-01-31T09:18:27.402Z,96520.43
2018-01-31T09:20:56.764Z,96522.84
2018-01-31T09:23:22.686Z,96515.92
2018-01-31T09:25:51.878Z,96505.88
2018-01-31T09:28:17.824Z,96502.34
2018-01-31T09:30:44.832Z,96491.54
2018-01-31T09:33:10.775Z,96490.31
2018-01-31T09:35:40.603Z,96487.95
2018-01-31T09:38:06.541Z,96486.53
2018-01-31T09:40:32.460Z,96479.61
2018-01-31T09:42:58.372Z,96482.58
2018-01-31T09:45:24.326Z,96475.84
2018-01-31T09:47:54.327Z,96476.89
2018-01-31T09:50:20.255Z,96473.42
2018-01-31T09:52:46.189Z,96454.17
2018-01-31T09:55:12.102Z,96447.52
2018-01-31T09:57:41.595Z,96444.91
2018-01-31T10:00:07.536Z,96444.73
2018-01-31T10:02:37.366Z,96447.09
2018-01-31T10:05:03.339Z,96450.73
2018-01-31T10:07:31.036Z,96444.45
2018-01-31T10:09:56.974Z,96446.25
2018-01-31T10:12:26.545Z,96434.64
2018-01-31T10:14:52.439Z,96430.33
2018-01-31T10:17:18.404Z,96422.38
2018-01-31T10:19:44.310Z,96413.98
2018-01-31T10:22:10.256Z,96404.26
2018-01-31T10:24:37.140Z,96401.58
2018-01-31T10:27:03.123Z,96385.91
2018-01-31T10:29:32.523Z,96383.76
2018-01-31T10:31:58.456Z,96380.08
2018-01-31T10:34:26.208Z,96368.30
2018-01-31T10:36:52.153Z,96365.81
2018-01-31T10:39:20.945Z,96358.73
2018-01-31T10:41:46.862Z,96346.97
2018-01-31T10:44:15.639Z,96349.92
2018-01-31T10:46:41.559Z,96347.80
2018-01-31T10:49:10.300Z,96345.64
2018-01-31T10:51:36.226Z,96340.66
2018-01-31T10:58:54.122Z,96317.06
2018-01-31T11:01:23.266Z,96317.09
2018-01-31T11:03:49.180Z,96320.31
2018-01-31T11:06:18.276Z,96319.32
2018-01-31T11:08:44.216Z,96310.56
2018-01-31T11:11:11.340Z,96289.95
2018-01-31T11:13:37.309Z,96281.93
2018-01-31T11:16:06.756Z,96292.66
2018-01-31T11:18:32.696Z,96290.47
2018-01-31T11:21:02.203Z,96285.42
2018-01-31T11:23:28.105Z,96279.34
2018-01-31T11:25:57.362Z,96279.70
2018-01-31T11:28:23.296Z,96279.78
2018-01-31T11:30:49.228Z,96252.92
2018-01-31T11:33:15.176Z,96250.69
2018-01-31T11:35:41.096Z,96247.27
2018-01-31T11:38:07.051Z,96230.89
2018-01-31T11:40:32.973Z,96204.78
2018-01-31T11:45:29.775Z,96212.61
2018-01-31T11:47:57.366Z,96204.97
2018-01-31T11:50:23.315Z,96196.17
2018-01-31T11:52:52.324Z,96183.42
2018-01-31T11:55:18.269Z,96169.77
2018-01-31T11:57:47.266Z,96180.80
2018-01-31T12:00:13.238Z,96179.22
2018-01-31T12:02:42.561Z,96184.54
2018-01-31T12:05:08.501Z,96181.55
2018-01-31T12:07:34.412Z,96167.34
2018-01-31T12:10:00.411Z,96159.61
2018-01-31T12:12:38.889Z,96153.91
2018-01-31T12:15:17.286Z,96161.81
2018-01-31T12:17:43.196Z,96122.25
2018-01-31T12:20:21.594Z,96115.55
2018-01-31T12:23:00.039Z,96114.91
2018-01-31T12:25:38.472Z,96108.63
2018-01-31T12:28:16.577Z,96096.52
2018-01-31T12:30:54.881Z,96088.30
2018-01-31T12:33:33.172Z,96095.97
2018-01-31T12:36:11.484Z,96094.91
2018-01-31T12:38:49.857Z,96094.02
2018-01-31T12:41:15.636Z,96090.37
2018-01-31T12:43:41.407Z,96080.33
2018-01-31T12:46:19.756Z,96076.19
2018-01-31T12:48:58.195Z,96064.92
2018-01-31T12:51:39.669Z,96061.34
2018-01-31T12:54:17.858Z,96060.55
2018-01-31T12:56:56.167Z,96052.29
2018-01-31T12:59:34.528Z,96050.06
2018-01-31T13:02:12.869Z,96052.41
2018-01-31T13:04:51.109Z,96054.95
2018-01-31T13:07:20.698Z,96057.08
2018-01-31T13:10:02.818Z,96050.94
2018-01-31T13:12:41.009Z,96044.38
2018-01-31T13:15:19.482Z,96047.78
2018-01-31T13:17:56.608Z,96046.04
2018-01-31T13:20:35.004Z,96038.47
2018-01-31T13:23:00.969Z,96031.75
2018-01-31T13:25:39.392Z,96028.52
2018-01-31T13:28:23.956Z,96011.70
2018-01-31T13:34:03.992Z,95983.50
2018-01-31T13:36:42.296Z,95963.44
2018-01-31T13:39:23.471Z,95951.09
2018-01-31T13:42:01.723Z,95960.32
2018-01-31T13:44:39.997Z,95963.78
2018-01-31T13:47:18.314Z,95950.98
2018-01-31T13:49:56.608Z,95935.00
2018-01-31T13:52:34.769Z,95946.06
2018-01-31T13:55:13.058Z,95958.66
2018-01-31T14:00:53.279Z,95941.08
2018-01-31T14:03:31.592Z,95918.84
2018-01-31T14:06:09.915Z,95911.67
2018-01-31T14:11:50.994Z,95886.44
2018-01-31T14:14:29.362Z,95892.61
2018-01-31T14:17:07.552Z,95886.02
2018-01-31T14:19:45.699Z,95878.97
2018-01-31T14:22:23.946Z,95871.11
2018-01-31T14:25:02.367Z,95859.98
2018-01-31T14:27:40.717Z,95848.34
2018-01-31T14:30:19.020Z,95840.16
2018-01-31T14:32:57.293Z,95832.21
2018-01-31T14:35:35.623Z,95821.03
2018-01-31T14:38:01.386Z,95817.12
2018-01-31T14:40:27.094Z,95803.61
2018-01-31T14:42:52.820Z,95793.77
2018-01-31T14:45:18.519Z,95786.72
2018-01-31T14:47:44.278Z,95782.40
2018-01-31T14:50:10.092Z,95787.89
2018-01-31T14:52:35.845Z,95781.02
2018-01-31T14:55:01.709Z,95781.19
2018-01-31T14:57:27.466Z,95779.79
2018-01-31T14:59:53.278Z,95788.06
2018-01-31T15:02:19.050Z,95785.92
2018-01-31T15:04:44.870Z,95772.91
2018-01-31T15:07:10.660Z,95773.55
2018-01-31T15:09:36.426Z,95766.64
2018-01-31T15:12:02.232Z,95771.21
2018-01-31T15:14:27.996Z,95759.30
2018-01-31T15:16:53.776Z,95758.33
2018-01-31T15:19:19.583Z,95762.02
2018-01-31T15:21:45.330Z,95748.30
2018-01-31T15:24:11.129Z,95741.00
2018-01-31T15:26:36.924Z,95746.38
2018-01-31T15:29:02.712Z,95739.70
2018-01-31T15:31:28.581Z,95733.27
2018-01-31T15:33:54.477Z,95728.66
2018-01-31T15:36:20.238Z,95727.08
2018-01-31T15:38:46.011Z,95729.98
2018-01-31T15:41:11.806Z,95723.80
2018-01-31T15:43:37.568Z,95712.93
2018-01-31T15:46:03.441Z,95700.28
2018-01-31T15:48:29.216Z,95687.21
2018-01-31T15:50:54.992Z,95677.67
2018-01-31T15:53:20.759Z,95673.84
2018-01-31T15:55:46.531Z,95678.57
2018-01-31T15:58:12.287Z,95667.31
2018-01-31T16:00:38.070Z,95663.10
2018-01-31T16:03:03.868Z,95657.53
2018-01-31T16:05:29.635Z,95651.66
2018-01-31T16:07:55.391Z,95646.30
2018-01-31T16:10:21.192Z,95639.47
2018-01-31T16:12:46.953Z,95641.41
2018-01-31T16:15:12.784Z,95631.75
2018-01-31T16:17:38.708Z,95623.83
2018-01-31T16:20:17.164Z,95616.48
2018-01-31T16:22:43.066Z,95613.23
2018-01-31T16:25:08.963Z,95603.39
2018-01-31T16:27:47.228Z,95602.71
2018-01-31T16:30:20.347Z,95600.93
2018-01-31T16:35:48.326Z,95601.06
2018-01-31T16:38:16.196Z,95587.91
2018-01-31T16:40:42.098Z,95587.69
2018-01-31T16:43:11.982Z,95595.75
2018-01-31T16:45:37.898Z,95602.32
2018-01-31T16:48:04.765Z,95611.41
2018-01-31T16:50:30.701Z,95610.99
2018-01-31T16:53:00.365Z,95639.72
2018-01-31T16:55:26.463Z,95649.08
2018-01-31T16:57:54.333Z,95654.80
2018-01-31T17:00:20.255Z,95661.34
2018-01-31T17:02:49.038Z,95646.36
2018-01-31T17:05:15.014Z,95650.98
2018-01-31T17:07:43.914Z,95646.62
2018-01-31T17:10:09.820Z,95647.22
2018-01-31T17:12:39.280Z,95649.80
2018-01-31T17:15:05.220Z,95636.44
2018-01-31T17:17:34.893Z,95635.66
2018-01-31T17:20:00.826Z,95633.16
2018-01-31T17:22:26.763Z,95627.92
2018-01-31T17:24:52.706Z,95630.66
2018-01-31T17:27:18.638Z,95633.84
2018-01-31T17:29:45.528Z,95632.28
2018-01-31T17:32:11.510Z,95624.80
2018-01-31T17:34:40.734Z,95620.91
2018-01-31T17:37:06.668Z,95613.53
2018-01-31T17:39:35.655Z,95622.20
2018-01-31T17:42:01.681Z,95619.23
2018-01-31T17:44:30.673Z,95617.53
2018-01-31T17:46:56.635Z,95614.14
2018-01-31T17:49:23.845Z,95615.95
2018-01-31T17:51:49.762Z,95604.23
2018-01-31T17:54:18.525Z,95606.92
2018-01-31T17:56:44.552Z,95605.35
2018-01-31T17:59:10.442Z,95608.94
2018-01-31T18:01:36.354Z,95617.90
2018-01-31T18:04:02.289Z,95620.13
2018-01-31T18:06:31.514Z,95606.77
2018-01-31T18:08:57.448Z,95610.16
2018-01-31T18:11:26.466Z,95598.64
2018-01-31T18:13:52.383Z,95610.21
2018-01-31T18:16:19.980Z,95593.27
2018-01-31T18:18:45.916Z,95586.02
2018-01-31T18:21:15.159Z,95581.75
2018-01-31T18:23:41.074Z,95583.34
2018-01-31T18:26:10.311Z,95564.60
2018-01-31T18:28:36.226Z,95569.64
2018-01-31T18:31:05.395Z,95566.06
2018-01-31T18:33:31.326Z,95545.27
2018-01-31T18:35:57.262Z,95563.98
2018-01-31T18:38:23.233Z,95553.72
2018-01-31T18:40:49.145Z,95547.97
2018-01-31T18:43:16.191Z,95552.78
2018-01-31T18:45:42.122Z,95549.63
2018-01-31T18:48:12.060Z,95553.73
2018-01-31T18:50:37.970Z,95547.36
2018-01-31T18:53:05.096Z,95541.47
2018-01-31T18:55:31.022Z,95534.31
2018-01-31T18:58:00.208Z,95541.05
2018-01-31T19:00:26.114Z,95533.59
2018-01-31T19:02:55.431Z,95542.72
2018-01-31T19:05:21.370Z,95539.92
2018-01-31T19:07:50.523Z,95545.09
2018-01-31T19:10:16.432Z,95524.94
2018-01-31T19:12:42.376Z,95527.16
2018-01-31T19:15:08.295Z,95525.28
2018-01-31T19:17:34.224Z,95515.24
2018-01-31T19:20:01.042Z,95519.29
2018-01-31T19:22:26.934Z,95523.73
2018-01-31T19:24:56.666Z,95526.39
2018-01-31T19:27:22.568Z,95515.20
2018-01-31T19:29:51.611Z,95513.38
2018-01-31T19:32:17.514Z,95507.73
2018-01-31T19:34:46.844Z,95513.27
2018-01-31T19:37:12.762Z,95507.43
2018-01-31T19:39:40.255Z,95512.63
2018-01-31T19:42:06.157Z,95503.81
2018-01-31T19:44:35.412Z,95496.69
2018-01-31T19:47:01.330Z,95493.60
2018-01-31T19:49:27.285Z,95484.73
2018-01-31T19:51:53.232Z,95486.45
2018-01-31T19:54:19.210Z,95473.91
2018-01-31T19:56:46.383Z,95479.22
2018-01-31T19:59:12.298Z,95469.39
2018-01-31T20:01:41.253Z,95461.62
2018-01-31T20:04:07.192Z,95454.39
2018-01-31T20:06:36.603Z,95467.13
2018-01-31T20:09:02.696Z,95457.81
2018-01-31T20:11:31.874Z,95460.59
2018-01-31T20:13:57.821Z,95463.12
2018-01-31T20:16:25.388Z,95453.38
2018-01-31T20:18:51.313Z,95453.36
2018-01-31T20:21:20.724Z,95451.79
2018-01-31T20:23:46.671Z,95433.95
2018-01-31T20:26:12.661Z,95436.53
2018-01-31T20:28:38.648Z,95439.95
2018-01-31T20:31:04.589Z,95439.47
2018-01-31T20:33:31.868Z,95444.33
2018-01-31T20:35:57.793Z,95435.58
2018-01-31T20:38:27.389Z,95434.95
2018-01-31T20:40:53.363Z,95429.99
2018-01-31T20:43:22.402Z,95429.30
2018-01-31T20:45:48.498Z,95420.54
2018-01-31T20:48:15.778Z,95422.61
2018-01-31T20:50:41.682Z,95411.95
2018-01-31T20:53:10.506Z,95418.52
2018-01-31T20:55:36.441Z,95414.51
2018-01-31T20:58:05.345Z,95415.88
2018-01-31T21:00:31.284Z,95408.62
2018-01-31T21:02:57.303Z,95405.13
2018-01-31T21:05:23.278Z,95404.76
2018-01-31T21:07:49.225Z,95401.98
2018-01-31T21:10:17.051Z,95394.84
2018-01-31T21:12:42.967Z,95398.68
2018-01-31T21:15:12.853Z,95394.03
2018-01-31T21:17:38.841Z,95394.25
2018-01-31T21:20:06.721Z,95391.58
2018-01-31T21:22:32.707Z,95393.90
2018-01-31T21:25:02.628Z,95390.42
2018-01-31T21:27:28.574Z,95390.42
2018-01-31T21:29:56.238Z,95380.91
2018-01-31T21:32:22.193Z,95372.66
2018-01-31T21:34:51.249Z,95362.06
2018-01-31T21:37:17.216Z,95357.03
2018-01-31T21:39:43.154Z,95358.47
2018-01-31T21:42:09.107Z,95354.00
2018-01-31T21:44:35.054Z,95349.48
2018-01-31T21:47:02.448Z,95338.82
2018-01-31T21:49:28.392Z,95346.39
2018-01-31T21:51:57.806Z,95337.09
2018-01-31T21:54:23.762Z,95336.91
2018-01-31T21:56:53.144Z,95325.51
2018-01-31T21:59:19.060Z,95320.95
2018-01-31T22:01:46.606Z,95325.81
2018-01-31T22:04:12.520Z,95317.20
2018-01-31T22:06:44.742Z,95311.41
2018-01-31T22:09:10.676Z,95307.87
2018-01-31T22:11:36.620Z,95304.66
2018-01-31T22:14:02.563Z,95306.25
2018-01-31T22:16:28.516Z,95295.08
2018-01-31T22:18:54.470Z,95296.27
2018-01-31T22:21:20.415Z,95294.38
2018-01-31T22:23:47.478Z,95287.27
2018-01-31T22:26:13.388Z,95290.98
2018-01-31T22:28:42.314Z,95288.28
2018-01-31T22:31:08.259Z,95282.06
2018-01-31T22:33:37.231Z,95289.48
2018-01-31T22:36:03.149Z,95281.48
2018-01-31T22:38:32.764Z,95278.70
2018-01-31T22:40:58.694Z,95275.21
2018-01-31T22:43:27.751Z,95274.19
2018-01-31T22:45:53.661Z,95267.80
2018-01-31T22:48:21.279Z,95262.11
2018-01-31T22:50:47.216Z,95248.00
2018-01-31T22:53:13.125Z,95252.56
2018-01-31T22:55:39.060Z,95259.38
2018-01-31T22:58:05.021Z,95245.44
2018-01-31T23:00:34.227Z,95241.91
2018-01-31T23:03:00.149Z,95240.97
2018-01-31T23:05:28.084Z,95241.66
2018-01-31T23:07:54.027Z,95243.88
2018-01-31T23:10:23.973Z,95232.88
2018-01-31T23:12:56.152Z,95244.92
2018-01-31T23:15:22.068Z,95240.92
2018-01-31T23:17:54.109Z,95233.17
2018-01-31T23:20:20.037Z,95237.98
2018-01-31T23:22:45.987Z,95232.05
2018-01-31T23:25:11.915Z,95233.23
2018-01-31T23:27:37.868Z,95232.82
2018-01-31T23:30:03.800Z,95230.30
2018-01-31T23:32:29.718Z,95227.08
2018-01-31T23:34:55.638Z,95222.53
2018-01-31T23:37:21.578Z,95223.80
2018-01-31T23:39:47.531Z,95219.72
2018-01-31T23:42:13.477Z,95228.76
2018-01-31T23:44:39.408Z,95222.13
2018-01-31T23:47:08.962Z,95224.88
2018-01-31T23:49:34.913Z,95228.48
2018-01-31T23:52:02.657Z,95232.63
2018-01-31T23:54:28.601Z,95232.30
2018-01-31T23:56:58.016Z,95231.70
2018-01-31T23:59:23.950Z,95222.50
